sensor_id;sensor_type;location;lat;lon;timestamp;P1;durP1;ratioP1;P2;durP2;ratioP2
39524;SDS011;25203;50.754;6.978;2023-11-19T00:01:37;0.40;;;0.28;;
39524;SDS011;25203;50.754;6.978;2023-11-19T00:03:37;0.20;;;0.20;;
39524;SDS011;25203;50.754;6.978;2023-11-19T00:05:38;0.20;;;0.20;;
39524;SDS011;25203;50.754;6.978;2023-11-19T00:07:39;0.15;;;0.15;;
39524;SDS011;25203;50.754;6.978;2023-11-19T00:09:41;0.20;;;0.20;;
39524;SDS011;25203;50.754;6.978;2023-11-19T00:11:43;0.35;;;0.30;;
39524;SDS011;25203;50.754;6.978;2023-11-19T00:13:44;0.20;;;0.20;;
39524;SDS011;25203;50.754;6.978;2023-11-19T00:15:45;0.30;;;0.30;;
39524;SDS011;25203;50.754;6.978;2023-11-19T00:17:47;0.68;;;0.30;;
39524;SDS011;25203;50.754;6.978;2023-11-19T00:19:48;0.63;;;0.40;;
39524;SDS011;25203;50.754;6.978;2023-11-19T00:21:51;0.43;;;0.30;;
39524;SDS011;25203;50.754;6.978;2023-11-19T00:23:52;0.50;;;0.30;;
39524;SDS011;25203;50.754;6.978;2023-11-19T00:25:52;0.52;;;0.30;;
39524;SDS011;25203;50.754;6.978;2023-11-19T00:27:53;0.45;;;0.20;;
39524;SDS011;25203;50.754;6.978;2023-11-19T00:29:53;1.75;;;0.30;;
39524;SDS011;25203;50.754;6.978;2023-11-19T00:31:54;0.20;;;0.20;;
39524;SDS011;25203;50.754;6.978;2023-11-19T00:33:55;0.43;;;0.32;;
39524;SDS011;25203;50.754;6.978;2023-11-19T00:35:55;0.65;;;0.22;;
39524;SDS011;25203;50.754;6.978;2023-11-19T00:37:56;0.88;;;0.40;;
39524;SDS011;25203;50.754;6.978;2023-11-19T00:39:57;0.30;;;0.30;;
39524;SDS011;25203;50.754;6.978;2023-11-19T00:41:58;1.85;;;0.30;;
39524;SDS011;25203;50.754;6.978;2023-11-19T00:43:58;0.60;;;0.40;;
39524;SDS011;25203;50.754;6.978;2023-11-19T00:45:59;0.32;;;0.32;;
39524;SDS011;25203;50.754;6.978;2023-11-19T00:48:00;0.15;;;0.15;;
39524;SDS011;25203;50.754;6.978;2023-11-19T00:50:01;0.25;;;0.22;;
39524;SDS011;25203;50.754;6.978;2023-11-19T00:52:03;0.43;;;0.20;;
39524;SDS011;25203;50.754;6.978;2023-11-19T00:54:03;0.20;;;0.20;;
39524;SDS011;25203;50.754;6.978;2023-11-19T00:56:04;0.10;;;0.10;;
39524;SDS011;25203;50.754;6.978;2023-11-19T00:58:05;0.20;;;0.20;;
39524;SDS011;25203;50.754;6.978;2023-11-19T01:00:06;0.30;;;0.30;;
39524;SDS011;25203;50.754;6.978;2023-11-19T01:02:18;0.20;;;0.20;;
39524;SDS011;25203;50.754;6.978;2023-11-19T01:04:18;2.30;;;0.40;;
39524;SDS011;25203;50.754;6.978;2023-11-19T01:08:29;0.20;;;0.20;;
39524;SDS011;25203;50.754;6.978;2023-11-19T01:10:30;0.20;;;0.20;;
39524;SDS011;25203;50.754;6.978;2023-11-19T01:12:31;1.67;;;0.25;;
39524;SDS011;25203;50.754;6.978;2023-11-19T01:14:31;0.13;;;0.10;;
39524;SDS011;25203;50.754;6.978;2023-11-19T01:16:32;1.55;;;0.35;;
39524;SDS011;25203;50.754;6.978;2023-11-19T01:18:32;0.20;;;0.20;;
39524;SDS011;25203;50.754;6.978;2023-11-19T01:20:33;1.17;;;0.20;;
39524;SDS011;25203;50.754;6.978;2023-11-19T01:22:34;0.20;;;0.20;;
39524;SDS011;25203;50.754;6.978;2023-11-19T01:24:35;0.20;;;0.20;;
39524;SDS011;25203;50.754;6.978;2023-11-19T01:26:35;1.02;;;0.28;;
39524;SDS011;25203;50.754;6.978;2023-11-19T01:28:36;0.50;;;0.20;;
39524;SDS011;25203;50.754;6.978;2023-11-19T01:30:39;0.90;;;0.35;;
39524;SDS011;25203;50.754;6.978;2023-11-19T01:32:41;0.85;;;0.30;;
39524;SDS011;25203;50.754;6.978;2023-11-19T01:34:41;1.85;;;0.30;;
39524;SDS011;25203;50.754;6.978;2023-11-19T01:36:42;0.98;;;0.20;;
39524;SDS011;25203;50.754;6.978;2023-11-19T01:38:42;0.25;;;0.25;;
39524;SDS011;25203;50.754;6.978;2023-11-19T01:40:43;0.30;;;0.30;;
39524;SDS011;25203;50.754;6.978;2023-11-19T01:42:44;1.33;;;0.40;;
39524;SDS011;25203;50.754;6.978;2023-11-19T01:44:54;0.98;;;0.30;;
39524;SDS011;25203;50.754;6.978;2023-11-19T01:46:59;0.20;;;0.20;;
39524;SDS011;25203;50.754;6.978;2023-11-19T01:49:00;0.28;;;0.25;;
39524;SDS011;25203;50.754;6.978;2023-11-19T01:51:02;0.60;;;0.28;;
39524;SDS011;25203;50.754;6.978;2023-11-19T01:53:03;0.20;;;0.20;;
39524;SDS011;25203;50.754;6.978;2023-11-19T01:55:04;0.20;;;0.20;;
39524;SDS011;25203;50.754;6.978;2023-11-19T01:57:06;0.45;;;0.20;;
39524;SDS011;25203;50.754;6.978;2023-11-19T01:59:07;0.30;;;0.30;;
39524;SDS011;25203;50.754;6.978;2023-11-19T02:01:10;0.43;;;0.30;;
39524;SDS011;25203;50.754;6.978;2023-11-19T02:03:12;0.68;;;0.40;;
39524;SDS011;25203;50.754;6.978;2023-11-19T02:05:14;0.80;;;0.40;;
39524;SDS011;25203;50.754;6.978;2023-11-19T02:07:15;1.75;;;0.45;;
39524;SDS011;25203;50.754;6.978;2023-11-19T02:09:17;0.30;;;0.30;;
39524;SDS011;25203;50.754;6.978;2023-11-19T02:11:19;0.82;;;0.38;;
39524;SDS011;25203;50.754;6.978;2023-11-19T02:13:20;3.00;;;0.40;;
39524;SDS011;25203;50.754;6.978;2023-11-19T02:15:20;0.30;;;0.30;;
39524;SDS011;25203;50.754;6.978;2023-11-19T02:17:24;1.20;;;0.40;;
39524;SDS011;25203;50.754;6.978;2023-11-19T02:19:31;0.45;;;0.30;;
39524;SDS011;25203;50.754;6.978;2023-11-19T02:21:31;4.35;;;0.50;;
39524;SDS011;25203;50.754;6.978;2023-11-19T02:23:32;3.30;;;0.60;;
39524;SDS011;25203;50.754;6.978;2023-11-19T02:25:33;0.52;;;0.40;;
39524;SDS011;25203;50.754;6.978;2023-11-19T02:27:54;0.80;;;0.50;;
39524;SDS011;25203;50.754;6.978;2023-11-19T02:29:58;2.28;;;0.50;;
39524;SDS011;25203;50.754;6.978;2023-11-19T02:31:59;1.25;;;0.45;;
39524;SDS011;25203;50.754;6.978;2023-11-19T02:33:59;1.35;;;0.60;;
39524;SDS011;25203;50.754;6.978;2023-11-19T02:36:03;6.03;;;0.70;;
39524;SDS011;25203;50.754;6.978;2023-11-19T02:38:04;1.85;;;0.60;;
39524;SDS011;25203;50.754;6.978;2023-11-19T02:40:06;7.57;;;2.17;;
39524;SDS011;25203;50.754;6.978;2023-11-19T02:42:09;1.33;;;0.70;;
39524;SDS011;25203;50.754;6.978;2023-11-19T02:44:10;4.90;;;0.90;;
39524;SDS011;25203;50.754;6.978;2023-11-19T02:46:11;3.60;;;0.70;;
39524;SDS011;25203;50.754;6.978;2023-11-19T02:48:12;4.13;;;0.73;;
39524;SDS011;25203;50.754;6.978;2023-11-19T02:50:14;3.92;;;1.00;;
39524;SDS011;25203;50.754;6.978;2023-11-19T02:52:15;3.85;;;1.00;;
39524;SDS011;25203;50.754;6.978;2023-11-19T02:54:15;7.30;;;1.10;;
39524;SDS011;25203;50.754;6.978;2023-11-19T02:56:16;4.85;;;1.00;;
39524;SDS011;25203;50.754;6.978;2023-11-19T02:58:25;3.20;;;0.90;;
39524;SDS011;25203;50.754;6.978;2023-11-19T03:00:28;3.13;;;1.20;;
39524;SDS011;25203;50.754;6.978;2023-11-19T03:02:42;4.68;;;0.98;;
39524;SDS011;25203;50.754;6.978;2023-11-19T03:04:47;4.22;;;1.10;;
39524;SDS011;25203;50.754;6.978;2023-11-19T03:06:48;4.22;;;1.00;;
39524;SDS011;25203;50.754;6.978;2023-11-19T03:08:49;2.15;;;0.90;;
39524;SDS011;25203;50.754;6.978;2023-11-19T03:10:49;6.10;;;1.10;;
39524;SDS011;25203;50.754;6.978;2023-11-19T03:12:50;7.65;;;1.25;;
39524;SDS011;25203;50.754;6.978;2023-11-19T03:14:51;6.90;;;1.60;;
39524;SDS011;25203;50.754;6.978;2023-11-19T03:16:51;6.20;;;1.40;;
39524;SDS011;25203;50.754;6.978;2023-11-19T03:18:52;6.32;;;1.55;;
39524;SDS011;25203;50.754;6.978;2023-11-19T03:20:53;6.05;;;1.50;;
39524;SDS011;25203;50.754;6.978;2023-11-19T03:22:53;4.80;;;1.88;;
39524;SDS011;25203;50.754;6.978;2023-11-19T03:24:54;7.25;;;1.67;;
39524;SDS011;25203;50.754;6.978;2023-11-19T03:26:55;7.15;;;1.85;;
39524;SDS011;25203;50.754;6.978;2023-11-19T03:28:55;6.82;;;1.73;;
39524;SDS011;25203;50.754;6.978;2023-11-19T03:30:57;4.88;;;1.48;;
39524;SDS011;25203;50.754;6.978;2023-11-19T03:32:57;8.35;;;1.95;;
39524;SDS011;25203;50.754;6.978;2023-11-19T03:34:58;10.65;;;1.90;;
39524;SDS011;25203;50.754;6.978;2023-11-19T03:36:59;8.27;;;2.03;;
39524;SDS011;25203;50.754;6.978;2023-11-19T03:39:00;8.27;;;1.50;;
39524;SDS011;25203;50.754;6.978;2023-11-19T03:41:00;6.70;;;1.48;;
39524;SDS011;25203;50.754;6.978;2023-11-19T03:43:01;8.38;;;1.70;;
39524;SDS011;25203;50.754;6.978;2023-11-19T03:45:04;5.50;;;1.85;;
39524;SDS011;25203;50.754;6.978;2023-11-19T03:47:06;7.07;;;2.20;;
39524;SDS011;25203;50.754;6.978;2023-11-19T03:49:07;10.65;;;1.85;;
39524;SDS011;25203;50.754;6.978;2023-11-19T03:51:08;7.20;;;1.50;;
39524;SDS011;25203;50.754;6.978;2023-11-19T03:53:08;9.18;;;1.83;;
39524;SDS011;25203;50.754;6.978;2023-11-19T03:55:09;15.82;;;2.40;;
39524;SDS011;25203;50.754;6.978;2023-11-19T03:57:09;11.48;;;1.98;;
39524;SDS011;25203;50.754;6.978;2023-11-19T03:59:13;14.65;;;2.28;;
39524;SDS011;25203;50.754;6.978;2023-11-19T04:01:15;9.27;;;2.53;;
39524;SDS011;25203;50.754;6.978;2023-11-19T04:03:15;9.35;;;1.95;;
39524;SDS011;25203;50.754;6.978;2023-11-19T04:05:16;7.50;;;1.80;;
39524;SDS011;25203;50.754;6.978;2023-11-19T04:07:18;6.40;;;1.55;;
39524;SDS011;25203;50.754;6.978;2023-11-19T04:09:19;12.70;;;2.05;;
39524;SDS011;25203;50.754;6.978;2023-11-19T04:11:20;7.97;;;2.35;;
39524;SDS011;25203;50.754;6.978;2023-11-19T04:13:20;7.47;;;1.75;;
39524;SDS011;25203;50.754;6.978;2023-11-19T04:15:21;10.13;;;2.20;;
39524;SDS011;25203;50.754;6.978;2023-11-19T04:17:22;8.32;;;1.80;;
39524;SDS011;25203;50.754;6.978;2023-11-19T04:19:23;9.60;;;2.17;;
39524;SDS011;25203;50.754;6.978;2023-11-19T04:21:24;12.13;;;2.38;;
39524;SDS011;25203;50.754;6.978;2023-11-19T04:23:25;8.27;;;1.60;;
39524;SDS011;25203;50.754;6.978;2023-11-19T04:25:26;8.18;;;2.45;;
39524;SDS011;25203;50.754;6.978;2023-11-19T04:27:26;10.10;;;2.10;;
39524;SDS011;25203;50.754;6.978;2023-11-19T04:29:27;10.73;;;2.03;;
39524;SDS011;25203;50.754;6.978;2023-11-19T04:31:30;9.27;;;1.88;;
39524;SDS011;25203;50.754;6.978;2023-11-19T04:33:33;6.63;;;1.25;;
39524;SDS011;25203;50.754;6.978;2023-11-19T04:35:34;6.72;;;1.60;;
39524;SDS011;25203;50.754;6.978;2023-11-19T04:37:35;13.55;;;1.75;;
39524;SDS011;25203;50.754;6.978;2023-11-19T04:39:35;8.85;;;1.85;;
39524;SDS011;25203;50.754;6.978;2023-11-19T04:41:45;9.25;;;2.53;;
39524;SDS011;25203;50.754;6.978;2023-11-19T04:43:48;15.38;;;2.22;;
39524;SDS011;25203;50.754;6.978;2023-11-19T04:45:49;13.82;;;2.80;;
39524;SDS011;25203;50.754;6.978;2023-11-19T04:47:50;11.25;;;2.03;;
39524;SDS011;25203;50.754;6.978;2023-11-19T04:49:50;11.10;;;2.50;;
39524;SDS011;25203;50.754;6.978;2023-11-19T04:51:51;11.43;;;2.50;;
39524;SDS011;25203;50.754;6.978;2023-11-19T04:53:51;10.00;;;2.33;;
39524;SDS011;25203;50.754;6.978;2023-11-19T04:55:52;10.55;;;2.88;;
39524;SDS011;25203;50.754;6.978;2023-11-19T04:57:53;11.45;;;2.10;;
39524;SDS011;25203;50.754;6.978;2023-11-19T04:59:54;13.15;;;2.22;;
39524;SDS011;25203;50.754;6.978;2023-11-19T05:01:55;14.13;;;2.88;;
39524;SDS011;25203;50.754;6.978;2023-11-19T05:03:56;13.00;;;2.50;;
39524;SDS011;25203;50.754;6.978;2023-11-19T05:05:59;13.65;;;2.33;;
39524;SDS011;25203;50.754;6.978;2023-11-19T05:07:59;13.40;;;2.30;;
39524;SDS011;25203;50.754;6.978;2023-11-19T05:10:01;11.05;;;2.13;;
39524;SDS011;25203;50.754;6.978;2023-11-19T05:12:03;13.93;;;2.75;;
39524;SDS011;25203;50.754;6.978;2023-11-19T05:14:04;10.85;;;2.38;;
39524;SDS011;25203;50.754;6.978;2023-11-19T05:16:05;15.63;;;2.80;;
39524;SDS011;25203;50.754;6.978;2023-11-19T05:18:06;11.73;;;2.70;;
39524;SDS011;25203;50.754;6.978;2023-11-19T05:20:07;10.75;;;2.45;;
39524;SDS011;25203;50.754;6.978;2023-11-19T05:22:13;13.15;;;2.28;;
39524;SDS011;25203;50.754;6.978;2023-11-19T05:24:13;15.00;;;2.58;;
39524;SDS011;25203;50.754;6.978;2023-11-19T05:26:21;13.85;;;2.38;;
39524;SDS011;25203;50.754;6.978;2023-11-19T05:28:23;17.25;;;2.90;;
39524;SDS011;25203;50.754;6.978;2023-11-19T05:30:26;18.52;;;3.55;;
39524;SDS011;25203;50.754;6.978;2023-11-19T05:32:26;13.00;;;2.58;;
39524;SDS011;25203;50.754;6.978;2023-11-19T05:34:27;13.48;;;2.40;;
39524;SDS011;25203;50.754;6.978;2023-11-19T05:36:28;18.23;;;3.15;;
39524;SDS011;25203;50.754;6.978;2023-11-19T05:38:29;15.15;;;2.40;;
39524;SDS011;25203;50.754;6.978;2023-11-19T05:40:30;16.33;;;3.08;;
39524;SDS011;25203;50.754;6.978;2023-11-19T05:42:30;15.80;;;3.42;;
39524;SDS011;25203;50.754;6.978;2023-11-19T05:44:31;14.75;;;3.42;;
39524;SDS011;25203;50.754;6.978;2023-11-19T05:46:32;15.82;;;3.38;;
39524;SDS011;25203;50.754;6.978;2023-11-19T05:48:33;11.27;;;3.63;;
39524;SDS011;25203;50.754;6.978;2023-11-19T05:50:33;13.00;;;3.35;;
39524;SDS011;25203;50.754;6.978;2023-11-19T05:52:34;10.65;;;3.67;;
39524;SDS011;25203;50.754;6.978;2023-11-19T05:54:35;11.10;;;2.72;;
39524;SDS011;25203;50.754;6.978;2023-11-19T05:56:37;9.50;;;2.40;;
39524;SDS011;25203;50.754;6.978;2023-11-19T05:58:38;19.95;;;2.72;;
39524;SDS011;25203;50.754;6.978;2023-11-19T06:00:40;20.80;;;3.33;;
39524;SDS011;25203;50.754;6.978;2023-11-19T06:02:41;20.08;;;3.90;;
39524;SDS011;25203;50.754;6.978;2023-11-19T06:04:41;17.35;;;3.22;;
39524;SDS011;25203;50.754;6.978;2023-11-19T06:06:44;24.60;;;3.85;;
39524;SDS011;25203;50.754;6.978;2023-11-19T06:08:44;16.58;;;3.45;;
39524;SDS011;25203;50.754;6.978;2023-11-19T06:10:45;19.02;;;3.78;;
39524;SDS011;25203;50.754;6.978;2023-11-19T06:12:46;15.10;;;3.40;;
39524;SDS011;25203;50.754;6.978;2023-11-19T06:14:47;17.23;;;4.72;;
39524;SDS011;25203;50.754;6.978;2023-11-19T06:16:48;18.08;;;3.83;;
39524;SDS011;25203;50.754;6.978;2023-11-19T06:18:48;16.75;;;3.65;;
39524;SDS011;25203;50.754;6.978;2023-11-19T06:20:49;13.55;;;2.83;;
39524;SDS011;25203;50.754;6.978;2023-11-19T06:22:49;16.23;;;3.00;;
39524;SDS011;25203;50.754;6.978;2023-11-19T06:24:50;19.10;;;3.55;;
39524;SDS011;25203;50.754;6.978;2023-11-19T06:26:51;17.48;;;3.38;;
39524;SDS011;25203;50.754;6.978;2023-11-19T06:28:51;18.10;;;3.92;;
39524;SDS011;25203;50.754;6.978;2023-11-19T06:30:52;17.00;;;4.25;;
39524;SDS011;25203;50.754;6.978;2023-11-19T06:32:52;19.73;;;2.60;;
39524;SDS011;25203;50.754;6.978;2023-11-19T06:34:53;19.25;;;3.60;;
39524;SDS011;25203;50.754;6.978;2023-11-19T06:36:54;14.18;;;3.47;;
39524;SDS011;25203;50.754;6.978;2023-11-19T06:38:54;14.65;;;3.13;;
39524;SDS011;25203;50.754;6.978;2023-11-19T06:40:55;11.98;;;3.15;;
39524;SDS011;25203;50.754;6.978;2023-11-19T06:42:56;14.50;;;3.15;;
39524;SDS011;25203;50.754;6.978;2023-11-19T06:44:57;12.88;;;2.90;;
39524;SDS011;25203;50.754;6.978;2023-11-19T06:46:57;16.80;;;2.88;;
39524;SDS011;25203;50.754;6.978;2023-11-19T06:48:58;8.00;;;2.35;;
39524;SDS011;25203;50.754;6.978;2023-11-19T06:51:00;16.15;;;3.53;;
39524;SDS011;25203;50.754;6.978;2023-11-19T06:53:00;19.90;;;4.43;;
39524;SDS011;25203;50.754;6.978;2023-11-19T06:55:01;23.48;;;5.18;;
39524;SDS011;25203;50.754;6.978;2023-11-19T06:57:01;21.30;;;3.75;;
39524;SDS011;25203;50.754;6.978;2023-11-19T06:59:03;20.08;;;3.10;;
39524;SDS011;25203;50.754;6.978;2023-11-19T07:01:06;14.32;;;2.80;;
39524;SDS011;25203;50.754;6.978;2023-11-19T07:03:08;15.55;;;3.03;;
39524;SDS011;25203;50.754;6.978;2023-11-19T07:05:09;19.50;;;3.42;;
39524;SDS011;25203;50.754;6.978;2023-11-19T07:07:12;14.05;;;3.10;;
39524;SDS011;25203;50.754;6.978;2023-11-19T07:09:15;17.17;;;3.45;;
39524;SDS011;25203;50.754;6.978;2023-11-19T07:11:16;17.02;;;3.03;;
39524;SDS011;25203;50.754;6.978;2023-11-19T07:13:17;20.45;;;3.17;;
39524;SDS011;25203;50.754;6.978;2023-11-19T07:15:17;26.58;;;4.45;;
39524;SDS011;25203;50.754;6.978;2023-11-19T07:17:18;15.25;;;3.15;;
39524;SDS011;25203;50.754;6.978;2023-11-19T07:19:20;17.00;;;2.83;;
39524;SDS011;25203;50.754;6.978;2023-11-19T07:21:20;17.73;;;3.47;;
39524;SDS011;25203;50.754;6.978;2023-11-19T07:23:21;19.95;;;3.60;;
39524;SDS011;25203;50.754;6.978;2023-11-19T07:25:22;16.27;;;4.28;;
39524;SDS011;25203;50.754;6.978;2023-11-19T07:27:23;22.98;;;3.95;;
39524;SDS011;25203;50.754;6.978;2023-11-19T07:29:24;22.50;;;4.15;;
39524;SDS011;25203;50.754;6.978;2023-11-19T07:31:24;14.32;;;3.50;;
39524;SDS011;25203;50.754;6.978;2023-11-19T07:33:25;20.90;;;3.60;;
39524;SDS011;25203;50.754;6.978;2023-11-19T07:35:26;17.77;;;4.57;;
39524;SDS011;25203;50.754;6.978;2023-11-19T07:37:26;19.10;;;3.88;;
39524;SDS011;25203;50.754;6.978;2023-11-19T07:39:27;14.27;;;3.05;;
39524;SDS011;25203;50.754;6.978;2023-11-19T07:41:28;17.25;;;3.83;;
39524;SDS011;25203;50.754;6.978;2023-11-19T07:43:28;22.17;;;3.65;;
39524;SDS011;25203;50.754;6.978;2023-11-19T07:45:29;19.80;;;3.97;;
39524;SDS011;25203;50.754;6.978;2023-11-19T07:47:29;18.15;;;3.95;;
39524;SDS011;25203;50.754;6.978;2023-11-19T07:49:30;15.13;;;3.47;;
39524;SDS011;25203;50.754;6.978;2023-11-19T07:51:31;22.55;;;4.32;;
39524;SDS011;25203;50.754;6.978;2023-11-19T07:53:31;14.15;;;3.40;;
39524;SDS011;25203;50.754;6.978;2023-11-19T07:55:33;20.08;;;3.42;;
39524;SDS011;25203;50.754;6.978;2023-11-19T07:57:34;20.27;;;4.30;;
39524;SDS011;25203;50.754;6.978;2023-11-19T07:59:34;16.50;;;3.13;;
39524;SDS011;25203;50.754;6.978;2023-11-19T08:01:35;18.33;;;3.65;;
39524;SDS011;25203;50.754;6.978;2023-11-19T08:03:36;18.50;;;3.85;;
39524;SDS011;25203;50.754;6.978;2023-11-19T08:05:36;19.55;;;3.25;;
39524;SDS011;25203;50.754;6.978;2023-11-19T08:07:37;25.42;;;4.13;;
39524;SDS011;25203;50.754;6.978;2023-11-19T08:09:37;17.45;;;3.53;;
39524;SDS011;25203;50.754;6.978;2023-11-19T08:11:38;20.27;;;4.25;;
39524;SDS011;25203;50.754;6.978;2023-11-19T08:13:42;18.10;;;4.15;;
39524;SDS011;25203;50.754;6.978;2023-11-19T08:15:43;22.20;;;4.28;;
39524;SDS011;25203;50.754;6.978;2023-11-19T08:17:43;20.00;;;4.53;;
39524;SDS011;25203;50.754;6.978;2023-11-19T08:19:44;26.45;;;5.07;;
39524;SDS011;25203;50.754;6.978;2023-11-19T08:21:45;20.95;;;4.22;;
39524;SDS011;25203;50.754;6.978;2023-11-19T08:23:45;20.73;;;3.60;;
39524;SDS011;25203;50.754;6.978;2023-11-19T08:25:46;22.38;;;3.72;;
39524;SDS011;25203;50.754;6.978;2023-11-19T08:27:46;19.15;;;3.65;;
39524;SDS011;25203;50.754;6.978;2023-11-19T08:29:47;19.80;;;3.80;;
39524;SDS011;25203;50.754;6.978;2023-11-19T08:31:48;22.88;;;3.95;;
39524;SDS011;25203;50.754;6.978;2023-11-19T08:33:48;18.95;;;4.18;;
39524;SDS011;25203;50.754;6.978;2023-11-19T08:35:49;21.63;;;5.80;;
39524;SDS011;25203;50.754;6.978;2023-11-19T08:37:50;22.10;;;4.10;;
39524;SDS011;25203;50.754;6.978;2023-11-19T08:39:51;14.93;;;3.65;;
39524;SDS011;25203;50.754;6.978;2023-11-19T08:41:52;20.88;;;4.10;;
39524;SDS011;25203;50.754;6.978;2023-11-19T08:43:52;14.25;;;3.30;;
39524;SDS011;25203;50.754;6.978;2023-11-19T08:45:53;14.38;;;3.30;;
39524;SDS011;25203;50.754;6.978;2023-11-19T08:47:53;17.05;;;3.72;;
39524;SDS011;25203;50.754;6.978;2023-11-19T08:49:54;18.02;;;3.63;;
39524;SDS011;25203;50.754;6.978;2023-11-19T08:51:55;23.15;;;4.15;;
39524;SDS011;25203;50.754;6.978;2023-11-19T08:53:55;16.10;;;3.63;;
39524;SDS011;25203;50.754;6.978;2023-11-19T08:55:57;17.90;;;3.78;;
39524;SDS011;25203;50.754;6.978;2023-11-19T08:57:58;17.42;;;4.25;;
39524;SDS011;25203;50.754;6.978;2023-11-19T08:59:58;19.90;;;4.57;;
39524;SDS011;25203;50.754;6.978;2023-11-19T09:01:59;20.55;;;4.30;;
39524;SDS011;25203;50.754;6.978;2023-11-19T09:04:00;19.38;;;3.67;;
39524;SDS011;25203;50.754;6.978;2023-11-19T09:06:00;17.55;;;3.90;;
39524;SDS011;25203;50.754;6.978;2023-11-19T09:08:01;17.98;;;4.05;;
39524;SDS011;25203;50.754;6.978;2023-11-19T09:10:02;17.38;;;3.47;;
39524;SDS011;25203;50.754;6.978;2023-11-19T09:12:05;14.63;;;3.67;;
39524;SDS011;25203;50.754;6.978;2023-11-19T09:14:06;19.73;;;3.97;;
39524;SDS011;25203;50.754;6.978;2023-11-19T09:16:06;20.52;;;3.75;;
39524;SDS011;25203;50.754;6.978;2023-11-19T09:18:08;11.07;;;3.33;;
39524;SDS011;25203;50.754;6.978;2023-11-19T09:20:09;14.13;;;3.72;;
39524;SDS011;25203;50.754;6.978;2023-11-19T09:22:12;15.23;;;3.55;;
39524;SDS011;25203;50.754;6.978;2023-11-19T09:24:13;17.30;;;3.65;;
39524;SDS011;25203;50.754;6.978;2023-11-19T09:26:13;17.52;;;3.83;;
39524;SDS011;25203;50.754;6.978;2023-11-19T09:28:14;16.90;;;4.07;;
39524;SDS011;25203;50.754;6.978;2023-11-19T09:30:15;18.02;;;4.45;;
39524;SDS011;25203;50.754;6.978;2023-11-19T09:32:15;17.40;;;4.07;;
39524;SDS011;25203;50.754;6.978;2023-11-19T09:34:16;14.30;;;3.92;;
39524;SDS011;25203;50.754;6.978;2023-11-19T09:36:17;12.65;;;3.90;;
39524;SDS011;25203;50.754;6.978;2023-11-19T09:38:19;17.77;;;4.03;;
39524;SDS011;25203;50.754;6.978;2023-11-19T09:40:19;17.90;;;3.85;;
39524;SDS011;25203;50.754;6.978;2023-11-19T09:42:20;18.23;;;4.53;;
39524;SDS011;25203;50.754;6.978;2023-11-19T09:44:21;19.33;;;4.43;;
39524;SDS011;25203;50.754;6.978;2023-11-19T09:46:22;23.65;;;4.65;;
39524;SDS011;25203;50.754;6.978;2023-11-19T09:48:24;18.38;;;3.95;;
39524;SDS011;25203;50.754;6.978;2023-11-19T09:50:25;18.13;;;3.88;;
39524;SDS011;25203;50.754;6.978;2023-11-19T09:52:26;14.95;;;4.30;;
39524;SDS011;25203;50.754;6.978;2023-11-19T09:54:27;19.77;;;3.88;;
39524;SDS011;25203;50.754;6.978;2023-11-19T09:56:28;19.77;;;3.70;;
39524;SDS011;25203;50.754;6.978;2023-11-19T09:58:30;16.38;;;3.83;;
39524;SDS011;25203;50.754;6.978;2023-11-19T10:00:34;14.80;;;3.50;;
39524;SDS011;25203;50.754;6.978;2023-11-19T10:02:37;16.27;;;4.45;;
39524;SDS011;25203;50.754;6.978;2023-11-19T10:04:39;21.08;;;5.45;;
39524;SDS011;25203;50.754;6.978;2023-11-19T10:06:44;15.02;;;3.90;;
39524;SDS011;25203;50.754;6.978;2023-11-19T10:08:45;17.65;;;4.45;;
39524;SDS011;25203;50.754;6.978;2023-11-19T10:10:45;16.10;;;3.35;;
39524;SDS011;25203;50.754;6.978;2023-11-19T10:12:47;19.77;;;4.30;;
39524;SDS011;25203;50.754;6.978;2023-11-19T10:14:48;20.00;;;4.63;;
39524;SDS011;25203;50.754;6.978;2023-11-19T10:16:51;18.50;;;4.13;;
39524;SDS011;25203;50.754;6.978;2023-11-19T10:18:51;20.13;;;4.82;;
39524;SDS011;25203;50.754;6.978;2023-11-19T10:20:52;16.88;;;4.13;;
39524;SDS011;25203;50.754;6.978;2023-11-19T10:22:55;18.98;;;4.63;;
39524;SDS011;25203;50.754;6.978;2023-11-19T10:24:56;19.50;;;3.65;;
39524;SDS011;25203;50.754;6.978;2023-11-19T10:26:56;18.42;;;4.60;;
39524;SDS011;25203;50.754;6.978;2023-11-19T10:28:57;19.65;;;4.10;;
39524;SDS011;25203;50.754;6.978;2023-11-19T10:30:58;15.48;;;3.95;;
39524;SDS011;25203;50.754;6.978;2023-11-19T10:35:09;17.92;;;3.97;;
39524;SDS011;25203;50.754;6.978;2023-11-19T10:37:27;19.73;;;4.00;;
39524;SDS011;25203;50.754;6.978;2023-11-19T10:41:54;20.45;;;4.15;;
39524;SDS011;25203;50.754;6.978;2023-11-19T10:43:54;12.73;;;3.90;;
39524;SDS011;25203;50.754;6.978;2023-11-19T10:45:59;19.48;;;3.72;;
39524;SDS011;25203;50.754;6.978;2023-11-19T10:48:13;19.58;;;4.03;;
39524;SDS011;25203;50.754;6.978;2023-11-19T10:50:13;15.45;;;4.30;;
39524;SDS011;25203;50.754;6.978;2023-11-19T10:52:17;17.85;;;3.83;;
39524;SDS011;25203;50.754;6.978;2023-11-19T10:54:19;16.92;;;3.33;;
39524;SDS011;25203;50.754;6.978;2023-11-19T10:56:20;13.27;;;3.42;;
39524;SDS011;25203;50.754;6.978;2023-11-19T10:58:25;17.13;;;3.28;;
39524;SDS011;25203;50.754;6.978;2023-11-19T11:00:34;16.75;;;3.20;;
39524;SDS011;25203;50.754;6.978;2023-11-19T11:02:37;16.95;;;3.92;;
39524;SDS011;25203;50.754;6.978;2023-11-19T11:04:42;18.70;;;3.90;;
39524;SDS011;25203;50.754;6.978;2023-11-19T11:06:43;21.95;;;5.03;;
39524;SDS011;25203;50.754;6.978;2023-11-19T11:08:44;15.50;;;3.75;;
39524;SDS011;25203;50.754;6.978;2023-11-19T11:10:52;11.32;;;3.10;;
39524;SDS011;25203;50.754;6.978;2023-11-19T11:12:55;16.02;;;4.20;;
39524;SDS011;25203;50.754;6.978;2023-11-19T11:14:59;13.45;;;3.60;;
39524;SDS011;25203;50.754;6.978;2023-11-19T11:17:00;21.05;;;4.57;;
39524;SDS011;25203;50.754;6.978;2023-11-19T11:19:03;20.88;;;3.58;;
39524;SDS011;25203;50.754;6.978;2023-11-19T11:21:06;20.95;;;4.57;;
39524;SDS011;25203;50.754;6.978;2023-11-19T11:25:33;15.93;;;3.58;;
39524;SDS011;25203;50.754;6.978;2023-11-19T11:27:48;18.58;;;3.50;;
39524;SDS011;25203;50.754;6.978;2023-11-19T11:30:29;21.10;;;3.30;;
39524;SDS011;25203;50.754;6.978;2023-11-19T11:32:54;19.02;;;2.95;;
39524;SDS011;25203;50.754;6.978;2023-11-19T11:35:01;20.33;;;4.13;;
39524;SDS011;25203;50.754;6.978;2023-11-19T11:37:11;19.75;;;3.30;;
39524;SDS011;25203;50.754;6.978;2023-11-19T11:39:32;15.57;;;3.63;;
39524;SDS011;25203;50.754;6.978;2023-11-19T11:41:33;15.25;;;3.92;;
39524;SDS011;25203;50.754;6.978;2023-11-19T11:43:43;15.63;;;3.35;;
39524;SDS011;25203;50.754;6.978;2023-11-19T11:45:45;18.13;;;3.30;;
39524;SDS011;25203;50.754;6.978;2023-11-19T11:49:56;18.42;;;3.33;;
39524;SDS011;25203;50.754;6.978;2023-11-19T11:52:07;19.40;;;4.15;;
39524;SDS011;25203;50.754;6.978;2023-11-19T11:56:17;16.75;;;3.70;;
39524;SDS011;25203;50.754;6.978;2023-11-19T11:58:19;12.85;;;3.15;;
39524;SDS011;25203;50.754;6.978;2023-11-19T12:02:30;19.33;;;3.55;;
39524;SDS011;25203;50.754;6.978;2023-11-19T12:04:31;21.08;;;4.20;;
39524;SDS011;25203;50.754;6.978;2023-11-19T12:06:32;17.30;;;3.47;;
39524;SDS011;25203;50.754;6.978;2023-11-19T12:08:33;12.77;;;3.35;;
39524;SDS011;25203;50.754;6.978;2023-11-19T12:10:45;15.93;;;3.30;;
39524;SDS011;25203;50.754;6.978;2023-11-19T12:12:58;17.77;;;3.35;;
39524;SDS011;25203;50.754;6.978;2023-11-19T12:15:09;14.50;;;2.65;;
39524;SDS011;25203;50.754;6.978;2023-11-19T12:17:35;14.88;;;3.00;;
39524;SDS011;25203;50.754;6.978;2023-11-19T12:19:41;14.82;;;3.15;;
39524;SDS011;25203;50.754;6.978;2023-11-19T12:21:42;17.65;;;2.97;;
39524;SDS011;25203;50.754;6.978;2023-11-19T12:23:46;16.00;;;3.10;;